sensor_id;sensor_type;location;lat;lon;timestamp;P1;durP1;ratioP1;P2;durP2;ratioP2
25079;SDS011;13071;48.868;9.996;2023-07-24T00:00:12;12.20;;;5.80;;
25079;SDS011;13071;48.868;9.996;2023-07-24T00:02:40;9.88;;;5.05;;
25079;SDS011;13071;48.868;9.996;2023-07-24T00:05:07;11.70;;;5.38;;
25079;SDS011;13071;48.868;9.996;2023-07-24T00:07:36;13.25;;;5.85;;
25079;SDS011;13071;48.868;9.996;2023-07-24T00:10:03;9.48;;;5.32;;
25079;SDS011;13071;48.868;9.996;2023-07-24T00:12:30;12.02;;;5.53;;
25079;SDS011;13071;48.868;9.996;2023-07-24T00:14:57;10.27;;;4.78;;
25079;SDS011;13071;48.868;9.996;2023-07-24T00:17:24;10.80;;;5.60;;
25079;SDS011;13071;48.868;9.996;2023-07-24T00:19:51;10.80;;;5.05;;
25079;SDS011;13071;48.868;9.996;2023-07-24T00:22:17;9.50;;;4.85;;
25079;SDS011;13071;48.868;9.996;2023-07-24T00:24:47;11.15;;;5.13;;
25079;SDS011;13071;48.868;9.996;2023-07-24T00:27:13;8.65;;;4.63;;
25079;SDS011;13071;48.868;9.996;2023-07-24T00:29:40;10.63;;;5.00;;
25079;SDS011;13071;48.868;9.996;2023-07-24T00:32:07;12.73;;;5.55;;
25079;SDS011;13071;48.868;9.996;2023-07-24T00:34:34;13.57;;;5.43;;
25079;SDS011;13071;48.868;9.996;2023-07-24T00:37:01;13.52;;;5.70;;
25079;SDS011;13071;48.868;9.996;2023-07-24T00:39:27;14.43;;;5.18;;
25079;SDS011;13071;48.868;9.996;2023-07-24T00:41:56;9.90;;;4.93;;
25079;SDS011;13071;48.868;9.996;2023-07-24T00:44:22;12.23;;;5.45;;
25079;SDS011;13071;48.868;9.996;2023-07-24T00:46:49;12.07;;;5.28;;
25079;SDS011;13071;48.868;9.996;2023-07-24T00:49:16;13.88;;;5.35;;
25079;SDS011;13071;48.868;9.996;2023-07-24T00:51:43;12.48;;;5.20;;
25079;SDS011;13071;48.868;9.996;2023-07-24T00:54:10;11.68;;;4.53;;
25079;SDS011;13071;48.868;9.996;2023-07-24T00:56:37;13.50;;;5.93;;
25079;SDS011;13071;48.868;9.996;2023-07-24T00:59:06;9.73;;;5.07;;
25079;SDS011;13071;48.868;9.996;2023-07-24T01:01:32;9.05;;;4.90;;
25079;SDS011;13071;48.868;9.996;2023-07-24T01:04:00;11.23;;;5.30;;
25079;SDS011;13071;48.868;9.996;2023-07-24T01:06:29;10.23;;;5.28;;
25079;SDS011;13071;48.868;9.996;2023-07-24T01:08:55;10.40;;;5.30;;
25079;SDS011;13071;48.868;9.996;2023-07-24T01:11:23;20.15;;;5.72;;
25079;SDS011;13071;48.868;9.996;2023-07-24T01:13:56;11.00;;;5.40;;
25079;SDS011;13071;48.868;9.996;2023-07-24T01:16:29;13.43;;;5.55;;
25079;SDS011;13071;48.868;9.996;2023-07-24T01:19:01;10.20;;;5.15;;
25079;SDS011;13071;48.868;9.996;2023-07-24T01:21:33;11.68;;;5.63;;
25079;SDS011;13071;48.868;9.996;2023-07-24T01:24:08;8.98;;;4.65;;
25079;SDS011;13071;48.868;9.996;2023-07-24T01:26:52;10.18;;;5.20;;
25079;SDS011;13071;48.868;9.996;2023-07-24T01:29:18;12.27;;;5.38;;
25079;SDS011;13071;48.868;9.996;2023-07-24T01:31:45;11.20;;;5.40;;
25079;SDS011;13071;48.868;9.996;2023-07-24T01:34:12;11.88;;;4.90;;
25079;SDS011;13071;48.868;9.996;2023-07-24T01:36:39;15.63;;;5.20;;
25079;SDS011;13071;48.868;9.996;2023-07-24T01:39:05;10.68;;;5.20;;
25079;SDS011;13071;48.868;9.996;2023-07-24T01:41:32;10.60;;;5.18;;
25079;SDS011;13071;48.868;9.996;2023-07-24T01:44:01;11.50;;;5.32;;
25079;SDS011;13071;48.868;9.996;2023-07-24T01:46:27;13.70;;;5.53;;
25079;SDS011;13071;48.868;9.996;2023-07-24T01:48:54;10.48;;;5.00;;
25079;SDS011;13071;48.868;9.996;2023-07-24T01:51:21;12.40;;;5.90;;
25079;SDS011;13071;48.868;9.996;2023-07-24T01:53:47;16.70;;;5.45;;
25079;SDS011;13071;48.868;9.996;2023-07-24T01:56:14;10.90;;;5.18;;
25079;SDS011;13071;48.868;9.996;2023-07-24T01:58:41;12.13;;;5.25;;
25079;SDS011;13071;48.868;9.996;2023-07-24T02:01:09;10.05;;;5.13;;
25079;SDS011;13071;48.868;9.996;2023-07-24T02:03:36;14.27;;;5.53;;
25079;SDS011;13071;48.868;9.996;2023-07-24T02:06:04;12.18;;;5.97;;
25079;SDS011;13071;48.868;9.996;2023-07-24T02:08:31;10.75;;;5.07;;
25079;SDS011;13071;48.868;9.996;2023-07-24T02:10:58;11.88;;;5.57;;
25079;SDS011;13071;48.868;9.996;2023-07-24T02:13:24;10.80;;;5.32;;
25079;SDS011;13071;48.868;9.996;2023-07-24T02:15:51;10.30;;;5.15;;
25079;SDS011;13071;48.868;9.996;2023-07-24T02:18:20;13.10;;;6.20;;
25079;SDS011;13071;48.868;9.996;2023-07-24T02:20:50;11.80;;;5.53;;
25079;SDS011;13071;48.868;9.996;2023-07-24T02:23:17;14.45;;;5.45;;
25079;SDS011;13071;48.868;9.996;2023-07-24T02:25:44;12.90;;;5.35;;
25079;SDS011;13071;48.868;9.996;2023-07-24T02:28:10;14.43;;;5.50;;
25079;SDS011;13071;48.868;9.996;2023-07-24T02:30:37;11.02;;;5.53;;
25079;SDS011;13071;48.868;9.996;2023-07-24T02:33:05;11.02;;;5.25;;
25079;SDS011;13071;48.868;9.996;2023-07-24T02:35:37;10.13;;;5.43;;
25079;SDS011;13071;48.868;9.996;2023-07-24T02:38:05;15.75;;;5.60;;
25079;SDS011;13071;48.868;9.996;2023-07-24T02:40:31;11.50;;;4.72;;
25079;SDS011;13071;48.868;9.996;2023-07-24T02:42:58;10.10;;;5.13;;
25079;SDS011;13071;48.868;9.996;2023-07-24T02:45:25;11.27;;;5.30;;
25079;SDS011;13071;48.868;9.996;2023-07-24T02:47:51;12.90;;;5.93;;
25079;SDS011;13071;48.868;9.996;2023-07-24T02:50:18;10.30;;;5.40;;
25079;SDS011;13071;48.868;9.996;2023-07-24T02:52:46;12.35;;;5.18;;
25079;SDS011;13071;48.868;9.996;2023-07-24T02:55:13;12.63;;;5.50;;
25079;SDS011;13071;48.868;9.996;2023-07-24T02:57:40;11.95;;;5.78;;
25079;SDS011;13071;48.868;9.996;2023-07-24T03:00:07;12.63;;;5.38;;
25079;SDS011;13071;48.868;9.996;2023-07-24T03:02:34;11.40;;;5.57;;
25079;SDS011;13071;48.868;9.996;2023-07-24T03:05:01;10.88;;;5.05;;
25079;SDS011;13071;48.868;9.996;2023-07-24T03:07:28;13.38;;;5.80;;
25079;SDS011;13071;48.868;9.996;2023-07-24T03:09:56;11.88;;;5.50;;
25079;SDS011;13071;48.868;9.996;2023-07-24T03:12:23;12.02;;;5.47;;
25079;SDS011;13071;48.868;9.996;2023-07-24T03:14:50;14.55;;;5.82;;
25079;SDS011;13071;48.868;9.996;2023-07-24T03:17:17;11.55;;;5.82;;
25079;SDS011;13071;48.868;9.996;2023-07-24T03:19:43;11.93;;;5.25;;
25079;SDS011;13071;48.868;9.996;2023-07-24T03:22:10;11.38;;;5.53;;
25079;SDS011;13071;48.868;9.996;2023-07-24T03:24:37;12.45;;;6.03;;
25079;SDS011;13071;48.868;9.996;2023-07-24T03:27:05;12.88;;;5.93;;
25079;SDS011;13071;48.868;9.996;2023-07-24T03:29:32;11.07;;;5.57;;
25079;SDS011;13071;48.868;9.996;2023-07-24T03:31:58;11.98;;;5.55;;
25079;SDS011;13071;48.868;9.996;2023-07-24T03:34:25;11.25;;;5.63;;
25079;SDS011;13071;48.868;9.996;2023-07-24T03:36:52;12.27;;;5.18;;
25079;SDS011;13071;48.868;9.996;2023-07-24T03:39:18;14.32;;;5.75;;
25079;SDS011;13071;48.868;9.996;2023-07-24T03:41:45;14.07;;;5.35;;
25079;SDS011;13071;48.868;9.996;2023-07-24T03:44:13;11.68;;;5.22;;
25079;SDS011;13071;48.868;9.996;2023-07-24T03:46:40;16.77;;;5.63;;
25079;SDS011;13071;48.868;9.996;2023-07-24T03:49:06;12.60;;;5.68;;
25079;SDS011;13071;48.868;9.996;2023-07-24T03:51:33;10.43;;;4.85;;
25079;SDS011;13071;48.868;9.996;2023-07-24T03:54:00;12.13;;;5.95;;
25079;SDS011;13071;48.868;9.996;2023-07-24T03:56:26;11.82;;;5.10;;
25079;SDS011;13071;48.868;9.996;2023-07-24T03:58:53;7.72;;;4.22;;
25079;SDS011;13071;48.868;9.996;2023-07-24T04:01:21;8.98;;;4.85;;
25079;SDS011;13071;48.868;9.996;2023-07-24T04:03:48;8.73;;;4.82;;
25079;SDS011;13071;48.868;9.996;2023-07-24T04:06:14;13.13;;;4.82;;
25079;SDS011;13071;48.868;9.996;2023-07-24T04:08:41;13.38;;;5.55;;
25079;SDS011;13071;48.868;9.996;2023-07-24T04:11:08;14.88;;;5.07;;
25079;SDS011;13071;48.868;9.996;2023-07-24T04:13:34;10.75;;;5.57;;
25079;SDS011;13071;48.868;9.996;2023-07-24T04:16:01;8.95;;;4.50;;
25079;SDS011;13071;48.868;9.996;2023-07-24T04:18:29;12.57;;;5.07;;
25079;SDS011;13071;48.868;9.996;2023-07-24T04:20:56;11.20;;;5.10;;
25079;SDS011;13071;48.868;9.996;2023-07-24T04:23:22;13.27;;;5.15;;
25079;SDS011;13071;48.868;9.996;2023-07-24T04:25:49;11.30;;;4.93;;
25079;SDS011;13071;48.868;9.996;2023-07-24T04:28:17;18.23;;;4.97;;
25079;SDS011;13071;48.868;9.996;2023-07-24T04:30:44;11.07;;;5.20;;
25079;SDS011;13071;48.868;9.996;2023-07-24T04:33:11;10.07;;;4.63;;
25079;SDS011;13071;48.868;9.996;2023-07-24T04:35:39;11.48;;;4.93;;
25079;SDS011;13071;48.868;9.996;2023-07-24T04:38:06;10.30;;;5.03;;
25079;SDS011;13071;48.868;9.996;2023-07-24T04:40:32;13.18;;;5.15;;
25079;SDS011;13071;48.868;9.996;2023-07-24T04:42:59;11.52;;;4.75;;
25079;SDS011;13071;48.868;9.996;2023-07-24T04:45:26;12.55;;;5.28;;
25079;SDS011;13071;48.868;9.996;2023-07-24T04:47:52;10.90;;;5.22;;
25079;SDS011;13071;48.868;9.996;2023-07-24T04:50:19;10.68;;;5.15;;
25079;SDS011;13071;48.868;9.996;2023-07-24T04:52:47;16.35;;;5.57;;
25079;SDS011;13071;48.868;9.996;2023-07-24T04:55:14;8.85;;;4.70;;
25079;SDS011;13071;48.868;9.996;2023-07-24T04:57:40;9.07;;;4.57;;
25079;SDS011;13071;48.868;9.996;2023-07-24T05:00:07;10.73;;;5.47;;
25079;SDS011;13071;48.868;9.996;2023-07-24T05:02:35;9.48;;;5.25;;
25079;SDS011;13071;48.868;9.996;2023-07-24T05:05:02;10.25;;;4.93;;
25079;SDS011;13071;48.868;9.996;2023-07-24T05:07:28;12.90;;;5.75;;
25079;SDS011;13071;48.868;9.996;2023-07-24T05:09:56;8.90;;;4.90;;
25079;SDS011;13071;48.868;9.996;2023-07-24T05:12:23;11.13;;;5.35;;
25079;SDS011;13071;48.868;9.996;2023-07-24T05:14:50;9.68;;;4.95;;
25079;SDS011;13071;48.868;9.996;2023-07-24T05:17:17;12.45;;;5.60;;
25079;SDS011;13071;48.868;9.996;2023-07-24T05:19:43;10.68;;;5.63;;
25079;SDS011;13071;48.868;9.996;2023-07-24T05:22:10;9.90;;;5.30;;
25079;SDS011;13071;48.868;9.996;2023-07-24T05:24:37;12.02;;;5.40;;
25079;SDS011;13071;48.868;9.996;2023-07-24T05:27:05;14.80;;;5.00;;
25079;SDS011;13071;48.868;9.996;2023-07-24T05:29:32;10.95;;;5.03;;
25079;SDS011;13071;48.868;9.996;2023-07-24T05:31:59;11.52;;;5.13;;
25079;SDS011;13071;48.868;9.996;2023-07-24T05:34:25;11.75;;;5.28;;
25079;SDS011;13071;48.868;9.996;2023-07-24T05:36:52;13.90;;;5.50;;
25079;SDS011;13071;48.868;9.996;2023-07-24T05:39:19;11.68;;;5.57;;
25079;SDS011;13071;48.868;9.996;2023-07-24T05:41:46;9.23;;;4.93;;
25079;SDS011;13071;48.868;9.996;2023-07-24T05:44:14;12.10;;;5.32;;
25079;SDS011;13071;48.868;9.996;2023-07-24T05:46:41;10.45;;;5.28;;
25079;SDS011;13071;48.868;9.996;2023-07-24T05:49:08;13.30;;;5.95;;
25079;SDS011;13071;48.868;9.996;2023-07-24T05:51:35;15.02;;;5.82;;
25079;SDS011;13071;48.868;9.996;2023-07-24T05:54:01;13.93;;;5.60;;
25079;SDS011;13071;48.868;9.996;2023-07-24T05:56:28;11.30;;;5.30;;
25079;SDS011;13071;48.868;9.996;2023-07-24T05:58:55;11.65;;;5.53;;
25079;SDS011;13071;48.868;9.996;2023-07-24T06:01:23;9.30;;;5.03;;
25079;SDS011;13071;48.868;9.996;2023-07-24T06:03:49;12.05;;;5.63;;
25079;SDS011;13071;48.868;9.996;2023-07-24T06:06:16;11.65;;;5.60;;
25079;SDS011;13071;48.868;9.996;2023-07-24T06:08:43;12.18;;;5.88;;
25079;SDS011;13071;48.868;9.996;2023-07-24T06:11:09;11.30;;;5.45;;
25079;SDS011;13071;48.868;9.996;2023-07-24T06:13:36;12.02;;;5.10;;
25079;SDS011;13071;48.868;9.996;2023-07-24T06:16:03;12.18;;;5.80;;
25079;SDS011;13071;48.868;9.996;2023-07-24T06:18:33;11.55;;;5.78;;
25079;SDS011;13071;48.868;9.996;2023-07-24T06:21:00;11.25;;;5.72;;
25079;SDS011;13071;48.868;9.996;2023-07-24T06:23:27;10.35;;;5.43;;
25079;SDS011;13071;48.868;9.996;2023-07-24T06:25:53;10.27;;;5.45;;
25079;SDS011;13071;48.868;9.996;2023-07-24T06:28:20;10.07;;;5.63;;
25079;SDS011;13071;48.868;9.996;2023-07-24T06:30:47;11.68;;;4.90;;
25079;SDS011;13071;48.868;9.996;2023-07-24T06:33:13;12.98;;;5.85;;
25079;SDS011;13071;48.868;9.996;2023-07-24T06:35:41;17.27;;;6.05;;
25079;SDS011;13071;48.868;9.996;2023-07-24T06:38:08;11.77;;;5.93;;
25079;SDS011;13071;48.868;9.996;2023-07-24T06:40:35;11.15;;;5.85;;
25079;SDS011;13071;48.868;9.996;2023-07-24T06:43:01;11.73;;;5.55;;
25079;SDS011;13071;48.868;9.996;2023-07-24T06:45:28;10.90;;;5.50;;
25079;SDS011;13071;48.868;9.996;2023-07-24T06:47:55;9.20;;;5.28;;
25079;SDS011;13071;48.868;9.996;2023-07-24T06:50:21;9.32;;;5.40;;
25079;SDS011;13071;48.868;9.996;2023-07-24T06:52:49;9.43;;;5.35;;
25079;SDS011;13071;48.868;9.996;2023-07-24T06:55:18;10.27;;;5.43;;
25079;SDS011;13071;48.868;9.996;2023-07-24T06:57:45;9.90;;;5.43;;
25079;SDS011;13071;48.868;9.996;2023-07-24T07:00:12;13.43;;;6.25;;
25079;SDS011;13071;48.868;9.996;2023-07-24T07:02:39;14.65;;;6.22;;
25079;SDS011;13071;48.868;9.996;2023-07-24T07:05:06;12.88;;;5.85;;
25079;SDS011;13071;48.868;9.996;2023-07-24T07:07:33;11.45;;;5.68;;
25079;SDS011;13071;48.868;9.996;2023-07-24T07:10:01;13.55;;;5.72;;
25079;SDS011;13071;48.868;9.996;2023-07-24T07:12:28;11.90;;;5.75;;
25079;SDS011;13071;48.868;9.996;2023-07-24T07:14:54;8.90;;;4.90;;
25079;SDS011;13071;48.868;9.996;2023-07-24T07:17:21;10.35;;;5.30;;
25079;SDS011;13071;48.868;9.996;2023-07-24T07:19:48;10.02;;;5.50;;
25079;SDS011;13071;48.868;9.996;2023-07-24T07:22:14;11.10;;;5.72;;
25079;SDS011;13071;48.868;9.996;2023-07-24T07:24:41;11.27;;;5.75;;
25079;SDS011;13071;48.868;9.996;2023-07-24T07:27:10;11.60;;;6.00;;
25079;SDS011;13071;48.868;9.996;2023-07-24T07:29:37;13.15;;;5.15;;
25079;SDS011;13071;48.868;9.996;2023-07-24T07:32:04;13.50;;;5.90;;
25079;SDS011;13071;48.868;9.996;2023-07-24T07:34:31;9.82;;;5.47;;
25079;SDS011;13071;48.868;9.996;2023-07-24T07:36:59;13.55;;;6.05;;
25079;SDS011;13071;48.868;9.996;2023-07-24T07:39:26;11.35;;;5.55;;
25079;SDS011;13071;48.868;9.996;2023-07-24T07:41:53;10.57;;;5.38;;
25079;SDS011;13071;48.868;9.996;2023-07-24T07:44:21;12.77;;;5.50;;
25079;SDS011;13071;48.868;9.996;2023-07-24T07:46:48;10.27;;;5.57;;
25079;SDS011;13071;48.868;9.996;2023-07-24T07:49:15;15.68;;;6.30;;
25079;SDS011;13071;48.868;9.996;2023-07-24T07:51:41;9.68;;;5.57;;
25079;SDS011;13071;48.868;9.996;2023-07-24T07:54:08;13.27;;;6.18;;
25079;SDS011;13071;48.868;9.996;2023-07-24T07:56:34;12.10;;;6.22;;
25079;SDS011;13071;48.868;9.996;2023-07-24T07:59:01;12.65;;;5.82;;
25079;SDS011;13071;48.868;9.996;2023-07-24T08:01:29;11.15;;;5.47;;
25079;SDS011;13071;48.868;9.996;2023-07-24T08:03:56;14.25;;;5.57;;
25079;SDS011;13071;48.868;9.996;2023-07-24T08:06:23;11.15;;;5.35;;
25079;SDS011;13071;48.868;9.996;2023-07-24T08:08:49;12.40;;;5.72;;
25079;SDS011;13071;48.868;9.996;2023-07-24T08:11:16;12.75;;;6.15;;
25079;SDS011;13071;48.868;9.996;2023-07-24T08:13:43;11.40;;;5.82;;
25079;SDS011;13071;48.868;9.996;2023-07-24T08:16:12;9.40;;;5.45;;
25079;SDS011;13071;48.868;9.996;2023-07-24T08:18:44;12.07;;;5.93;;
25079;SDS011;13071;48.868;9.996;2023-07-24T08:21:12;13.27;;;6.32;;
25079;SDS011;13071;48.868;9.996;2023-07-24T08:23:38;10.45;;;5.72;;
25079;SDS011;13071;48.868;9.996;2023-07-24T08:26:06;10.15;;;5.88;;
25079;SDS011;13071;48.868;9.996;2023-07-24T08:28:33;12.48;;;5.63;;
25079;SDS011;13071;48.868;9.996;2023-07-24T08:31:00;10.82;;;6.05;;
25079;SDS011;13071;48.868;9.996;2023-07-24T08:33:27;9.77;;;5.82;;
25079;SDS011;13071;48.868;9.996;2023-07-24T08:35:59;12.27;;;6.15;;
25079;SDS011;13071;48.868;9.996;2023-07-24T08:38:27;10.60;;;6.22;;
25079;SDS011;13071;48.868;9.996;2023-07-24T08:41:03;11.32;;;5.80;;
25079;SDS011;13071;48.868;9.996;2023-07-24T08:43:32;13.05;;;5.95;;
25079;SDS011;13071;48.868;9.996;2023-07-24T08:46:00;11.10;;;6.15;;
25079;SDS011;13071;48.868;9.996;2023-07-24T08:48:28;11.70;;;5.75;;
25079;SDS011;13071;48.868;9.996;2023-07-24T08:50:56;13.85;;;5.90;;
25079;SDS011;13071;48.868;9.996;2023-07-24T08:53:26;12.23;;;5.82;;
25079;SDS011;13071;48.868;9.996;2023-07-24T08:55:55;13.00;;;5.95;;
25079;SDS011;13071;48.868;9.996;2023-07-24T08:58:22;13.10;;;6.25;;
25079;SDS011;13071;48.868;9.996;2023-07-24T09:00:49;11.35;;;5.75;;
25079;SDS011;13071;48.868;9.996;2023-07-24T09:03:17;10.88;;;5.65;;
25079;SDS011;13071;48.868;9.996;2023-07-24T09:05:44;13.05;;;6.18;;
25079;SDS011;13071;48.868;9.996;2023-07-24T09:08:11;15.13;;;6.35;;
25079;SDS011;13071;48.868;9.996;2023-07-24T09:10:39;16.90;;;6.45;;
25079;SDS011;13071;48.868;9.996;2023-07-24T09:13:06;13.93;;;6.57;;
25079;SDS011;13071;48.868;9.996;2023-07-24T09:15:39;12.65;;;5.90;;
25079;SDS011;13071;48.868;9.996;2023-07-24T09:18:06;13.38;;;6.80;;
25079;SDS011;13071;48.868;9.996;2023-07-24T09:20:37;17.55;;;5.53;;
25079;SDS011;13071;48.868;9.996;2023-07-24T09:23:05;11.38;;;6.03;;
25079;SDS011;13071;48.868;9.996;2023-07-24T09:25:33;11.38;;;6.30;;
25079;SDS011;13071;48.868;9.996;2023-07-24T09:28:08;9.82;;;5.25;;
25079;SDS011;13071;48.868;9.996;2023-07-24T09:30:35;17.23;;;6.13;;
25079;SDS011;13071;48.868;9.996;2023-07-24T09:33:02;13.32;;;5.72;;
25079;SDS011;13071;48.868;9.996;2023-07-24T09:35:29;9.70;;;5.47;;
25079;SDS011;13071;48.868;9.996;2023-07-24T09:38:01;11.23;;;5.72;;
25079;SDS011;13071;48.868;9.996;2023-07-24T09:40:36;11.35;;;5.28;;
25079;SDS011;13071;48.868;9.996;2023-07-24T09:43:14;10.57;;;5.28;;
25079;SDS011;13071;48.868;9.996;2023-07-24T09:45:41;11.02;;;5.05;;
25079;SDS011;13071;48.868;9.996;2023-07-24T09:48:09;9.30;;;5.15;;
25079;SDS011;13071;48.868;9.996;2023-07-24T09:50:38;14.18;;;5.38;;
25079;SDS011;13071;48.868;9.996;2023-07-24T09:53:06;11.40;;;5.40;;
25079;SDS011;13071;48.868;9.996;2023-07-24T09:55:37;8.23;;;4.68;;
25079;SDS011;13071;48.868;9.996;2023-07-24T09:58:12;13.40;;;5.60;;
25079;SDS011;13071;48.868;9.996;2023-07-24T10:00:42;9.00;;;4.82;;
25079;SDS011;13071;48.868;9.996;2023-07-24T10:03:09;8.77;;;4.90;;
25079;SDS011;13071;48.868;9.996;2023-07-24T10:05:37;13.38;;;5.40;;
25079;SDS011;13071;48.868;9.996;2023-07-24T10:08:04;10.95;;;4.68;;
25079;SDS011;13071;48.868;9.996;2023-07-24T10:10:31;6.97;;;4.00;;
25079;SDS011;13071;48.868;9.996;2023-07-24T10:13:00;7.97;;;4.35;;
25079;SDS011;13071;48.868;9.996;2023-07-24T10:15:30;9.00;;;4.68;;
25079;SDS011;13071;48.868;9.996;2023-07-24T10:18:02;7.55;;;4.75;;
25079;SDS011;13071;48.868;9.996;2023-07-24T10:20:32;8.02;;;4.78;;
25079;SDS011;13071;48.868;9.996;2023-07-24T10:23:01;6.72;;;3.97;;
25079;SDS011;13071;48.868;9.996;2023-07-24T10:25:29;8.98;;;4.43;;
25079;SDS011;13071;48.868;9.996;2023-07-24T10:28:01;11.68;;;4.65;;
25079;SDS011;13071;48.868;9.996;2023-07-24T10:30:32;9.27;;;4.53;;
25079;SDS011;13071;48.868;9.996;2023-07-24T10:33:05;8.70;;;4.55;;
25079;SDS011;13071;48.868;9.996;2023-07-24T10:35:41;7.47;;;4.50;;
25079;SDS011;13071;48.868;9.996;2023-07-24T10:38:08;8.93;;;4.57;;
25079;SDS011;13071;48.868;9.996;2023-07-24T10:40:36;9.23;;;4.75;;
25079;SDS011;13071;48.868;9.996;2023-07-24T10:43:06;8.82;;;4.43;;
25079;SDS011;13071;48.868;9.996;2023-07-24T10:45:42;8.48;;;4.40;;
25079;SDS011;13071;48.868;9.996;2023-07-24T10:48:13;7.07;;;4.30;;
25079;SDS011;13071;48.868;9.996;2023-07-24T10:50:41;11.57;;;4.88;;
25079;SDS011;13071;48.868;9.996;2023-07-24T10:53:09;11.73;;;4.85;;
25079;SDS011;13071;48.868;9.996;2023-07-24T10:55:38;8.63;;;4.28;;
25079;SDS011;13071;48.868;9.996;2023-07-24T10:58:06;11.00;;;4.95;;
25079;SDS011;13071;48.868;9.996;2023-07-24T11:00:33;17.25;;;4.85;;
25079;SDS011;13071;48.868;9.996;2023-07-24T11:03:04;7.93;;;4.82;;
25079;SDS011;13071;48.868;9.996;2023-07-24T11:05:33;10.32;;;4.85;;
25079;SDS011;13071;48.868;9.996;2023-07-24T11:08:00;8.32;;;4.47;;
25079;SDS011;13071;48.868;9.996;2023-07-24T11:10:27;9.02;;;4.93;;
25079;SDS011;13071;48.868;9.996;2023-07-24T11:12:55;11.48;;;5.00;;
25079;SDS011;13071;48.868;9.996;2023-07-24T11:15:26;10.38;;;4.95;;
25079;SDS011;13071;48.868;9.996;2023-07-24T11:17:54;10.23;;;4.93;;
25079;SDS011;13071;48.868;9.996;2023-07-24T11:20:23;10.98;;;5.18;;
25079;SDS011;13071;48.868;9.996;2023-07-24T11:22:50;12.10;;;4.95;;
25079;SDS011;13071;48.868;9.996;2023-07-24T11:25:18;8.02;;;4.68;;
25079;SDS011;13071;48.868;9.996;2023-07-24T11:27:47;11.90;;;4.90;;
25079;SDS011;13071;48.868;9.996;2023-07-24T11:30:19;11.10;;;4.97;;
25079;SDS011;13071;48.868;9.996;2023-07-24T11:32:46;7.65;;;4.72;;
25079;SDS011;13071;48.868;9.996;2023-07-24T11:35:14;8.82;;;4.95;;
25079;SDS011;13071;48.868;9.996;2023-07-24T11:37:42;12.15;;;5.07;;
25079;SDS011;13071;48.868;9.996;2023-07-24T11:40:10;8.65;;;4.47;;
25079;SDS011;13071;48.868;9.996;2023-07-24T11:42:39;8.85;;;4.78;;
25079;SDS011;13071;48.868;9.996;2023-07-24T11:45:07;8.65;;;4.28;;
25079;SDS011;13071;48.868;9.996;2023-07-24T11:47:42;8.20;;;4.50;;
25079;SDS011;13071;48.868;9.996;2023-07-24T11:50:09;12.77;;;4.63;;
25079;SDS011;13071;48.868;9.996;2023-07-24T11:52:40;10.90;;;5.10;;
25079;SDS011;13071;48.868;9.996;2023-07-24T11:55:10;10.85;;;4.70;;
25079;SDS011;13071;48.868;9.996;2023-07-24T11:57:37;10.63;;;5.20;;
25079;SDS011;13071;48.868;9.996;2023-07-24T12:00:04;14.25;;;5.40;;
25079;SDS011;13071;48.868;9.996;2023-07-24T12:02:32;11.20;;;5.53;;
25079;SDS011;13071;48.868;9.996;2023-07-24T12:04:59;12.35;;;5.90;;
25079;SDS011;13071;48.868;9.996;2023-07-24T12:07:30;12.75;;;6.40;;
25079;SDS011;13071;48.868;9.996;2023-07-24T12:09:59;9.65;;;5.40;;
25079;SDS011;13071;48.868;9.996;2023-07-24T12:12:37;8.35;;;5.70;;
25079;SDS011;13071;48.868;9.996;2023-07-24T12:15:05;9.82;;;5.65;;
25079;SDS011;13071;48.868;9.996;2023-07-24T12:17:33;11.88;;;5.82;;
25079;SDS011;13071;48.868;9.996;2023-07-24T12:20:00;10.32;;;5.60;;
25079;SDS011;13071;48.868;9.996;2023-07-24T12:22:27;11.55;;;5.55;;
25079;SDS011;13071;48.868;9.996;2023-07-24T12:24:54;12.85;;;5.60;;
25079;SDS011;13071;48.868;9.996;2023-07-24T12:27:21;11.07;;;5.35;;
25079;SDS011;13071;48.868;9.996;2023-07-24T12:29:49;9.93;;;5.07;;
25079;SDS011;13071;48.868;9.996;2023-07-24T12:32:15;7.72;;;4.43;;
25079;SDS011;13071;48.868;9.996;2023-07-24T12:34:42;7.57;;;4.93;;
25079;SDS011;13071;48.868;9.996;2023-07-24T12:37:09;9.77;;;5.32;;
25079;SDS011;13071;48.868;9.996;2023-07-24T12:39:36;8.65;;;5.22;;
25079;SDS011;13071;48.868;9.996;2023-07-24T12:42:03;8.57;;;4.78;;
25079;SDS011;13071;48.868;9.996;2023-07-24T12:44:31;7.95;;;4.85;;
25079;SDS011;13071;48.868;9.996;2023-07-24T12:46:59;9.23;;;4.72;;
25079;SDS011;13071;48.868;9.996;2023-07-24T12:49:25;10.40;;;5.18;;
25079;SDS011;13071;48.868;9.996;2023-07-24T12:51:52;11.68;;;5.25;;
25079;SDS011;13071;48.868;9.996;2023-07-24T12:54:19;8.55;;;4.75;;
25079;SDS011;13071;48.868;9.996;2023-07-24T12:56:47;7.30;;;4.63;;
25079;SDS011;13071;48.868;9.996;2023-07-24T12:59:14;10.70;;;4.53;;
25079;SDS011;13071;48.868;9.996;2023-07-24T13:01:40;8.77;;;4.68;;
25079;SDS011;13071;48.868;9.996;2023-07-24T13:04:09;8.23;;;4.20;;
25079;SDS011;13071;48.868;9.996;2023-07-24T13:06:35;7.55;;;3.80;;
25079;SDS011;13071;48.868;9.996;2023-07-24T13:09:02;7.22;;;3.45;;
25079;SDS011;13071;48.868;9.996;2023-07-24T13:11:29;9.30;;;4.00;;
25079;SDS011;13071;48.868;9.996;2023-07-24T13:13:56;7.63;;;3.85;;
25079;SDS011;13071;48.868;9.996;2023-07-24T13:16:23;7.47;;;3.78;;
25079;SDS011;13071;48.868;9.996;2023-07-24T13:18:50;5.35;;;3.58;;
25079;SDS011;13071;48.868;9.996;2023-07-24T13:21:18;5.25;;;3.33;;
25079;SDS011;13071;48.868;9.996;2023-07-24T13:23:44;4.70;;;2.92;;
25079;SDS011;13071;48.868;9.996;2023-07-24T13:26:11;7.28;;;3.78;;
25079;SDS011;13071;48.868;9.996;2023-07-24T13:28:38;4.53;;;3.10;;
25079;SDS011;13071;48.868;9.996;2023-07-24T13:31:12;5.50;;;3.50;;
25079;SDS011;13071;48.868;9.996;2023-07-24T13:33:41;6.40;;;3.17;;
25079;SDS011;13071;48.868;9.996;2023-07-24T13:36:08;5.50;;;3.75;;
25079;SDS011;13071;48.868;9.996;2023-07-24T13:38:37;5.20;;;3.13;;
25079;SDS011;13071;48.868;9.996;2023-07-24T13:41:05;5.50;;;3.25;;
25079;SDS011;13071;48.868;9.996;2023-07-24T13:43:33;4.82;;;3.20;;
25079;SDS011;13071;48.868;9.996;2023-07-24T13:46:00;5.50;;;3.45;;
25079;SDS011;13071;48.868;9.996;2023-07-24T13:48:28;5.60;;;3.50;;
25079;SDS011;13071;48.868;9.996;2023-07-24T13:50:55;5.53;;;3.50;;
25079;SDS011;13071;48.868;9.996;2023-07-24T13:53:22;8.90;;;3.35;;
25079;SDS011;13071;48.868;9.996;2023-07-24T13:55:51;5.60;;;3.28;;
25079;SDS011;13071;48.868;9.996;2023-07-24T13:58:17;5.80;;;3.60;;
25079;SDS011;13071;48.868;9.996;2023-07-24T14:00:44;6.80;;;3.53;;
25079;SDS011;13071;48.868;9.996;2023-07-24T14:03:12;5.47;;;3.63;;
25079;SDS011;13071;48.868;9.996;2023-07-24T14:05:39;5.65;;;3.17;;
25079;SDS011;13071;48.868;9.996;2023-07-24T14:08:06;5.93;;;3.40;;
25079;SDS011;13071;48.868;9.996;2023-07-24T14:10:33;6.07;;;3.30;;
25079;SDS011;13071;48.868;9.996;2023-07-24T14:13:01;7.82;;;3.85;;
25079;SDS011;13071;48.868;9.996;2023-07-24T14:15:28;5.43;;;3.13;;
25079;SDS011;13071;48.868;9.996;2023-07-24T14:17:55;6.25;;;3.88;;
25079;SDS011;13071;48.868;9.996;2023-07-24T14:20:22;6.68;;;3.70;;
25079;SDS011;13071;48.868;9.996;2023-07-24T14:22:49;4.00;;;3.28;;
25079;SDS011;13071;48.868;9.996;2023-07-24T14:25:16;7.15;;;3.20;;
25079;SDS011;13071;48.868;9.996;2023-07-24T14:27:42;5.43;;;3.13;;
25079;SDS011;13071;48.868;9.996;2023-07-24T14:30:11;4.68;;;3.03;;
25079;SDS011;13071;48.868;9.996;2023-07-24T14:32:37;4.30;;;3.15;;
25079;SDS011;13071;48.868;9.996;2023-07-24T14:35:04;5.50;;;3.03;;
25079;SDS011;13071;48.868;9.996;2023-07-24T14:37:32;5.60;;;2.97;;
25079;SDS011;13071;48.868;9.996;2023-07-24T14:39:59;4.93;;;2.90;;